Time,TemperatureF,DewpointF,PressureIn,WindDirection,WindDirectionDegrees,WindSpeedMPH,WindSpeedGustMPH,Humidity,HourlyPrecipIn,Conditions,Clouds,dailyrainin,SolarRadiationWatts/m^2,SoftwareType,DateUTC
2013-04-24 00:02:00,25.0,-2.0,-100.00,NW,320,3.0,5.0,30,0.00,,,0.00,0.000000,,2013-04-24 06:02:00,
2013-04-24 00:11:00,25.0,-2.0,-100.00,NW,320,3.0,5.0,30,0.00,,,0.00,0.000000,,2013-04-24 06:11:00,
2013-04-24 00:21:00,25.0,-2.0,-100.00,NW,320,3.0,5.0,30,0.00,,,0.00,0.000000,,2013-04-24 06:21:00,
2013-04-24 00:52:00,23.0,-1.0,-100.00,NNE,16,2.0,5.0,34,0.00,,,0.00,0.000000,,2013-04-24 06:52:00,
2013-04-24 01:02:00,23.0,-1.0,-100.00,NNE,16,2.0,5.0,34,0.00,,,0.00,0.000000,,2013-04-24 07:02:00,
2013-04-24 01:11:00,23.0,-1.0,-100.00,NNE,16,2.0,5.0,34,0.00,,,0.00,0.000000,,2013-04-24 07:11:00,
2013-04-24 01:21:00,23.0,-1.0,-100.00,NNE,16,2.0,5.0,34,0.00,,,0.00,0.000000,,2013-04-24 07:21:00,
2013-04-24 01:52:00,24.0,-2.0,-100.00,NE,42,3.0,5.0,31,0.00,,,0.00,0.000000,,2013-04-24 07:52:00,
2013-04-24 02:01:00,24.0,-2.0,-100.00,NE,42,3.0,5.0,31,0.00,,,0.00,0.000000,,2013-04-24 08:01:00,
2013-04-24 02:11:00,24.0,-2.0,-100.00,NE,42,3.0,5.0,31,0.00,,,0.00,0.000000,,2013-04-24 08:11:00,
2013-04-24 02:21:00,24.0,-2.0,-100.00,NE,42,3.0,5.0,31,0.00,,,0.00,0.000000,,2013-04-24 08:21:00,
2013-04-24 02:52:00,23.0,-1.0,-100.00,ENE,71,2.0,3.0,34,0.00,,,0.00,0.000000,,2013-04-24 08:52:00,
2013-04-24 03:01:00,23.0,-1.0,-100.00,ENE,71,2.0,3.0,34,0.00,,,0.00,0.000000,,2013-04-24 09:01:00,
2013-04-24 03:11:00,23.0,-1.0,-100.00,ENE,71,2.0,3.0,34,0.00,,,0.00,0.000000,,2013-04-24 09:11:00,
2013-04-24 03:21:00,23.0,-1.0,-100.00,ENE,71,2.0,3.0,34,0.00,,,0.00,0.000000,,2013-04-24 09:21:00,
2013-04-24 03:42:00,23.0,1.0,-100.00,NNE,12,2.0,5.0,37,0.00,,,0.00,0.000000,,2013-04-24 09:42:00,
2013-04-24 03:53:00,23.0,1.0,-100.00,NNE,12,2.0,5.0,37,0.00,,,0.00,0.000000,,2013-04-24 09:53:00,
2013-04-24 04:02:00,23.0,1.0,-100.00,NNE,12,2.0,5.0,37,0.00,,,0.00,0.000000,,2013-04-24 10:02:00,
2013-04-24 04:12:00,23.0,1.0,-100.00,NNE,12,2.0,5.0,37,0.00,,,0.00,0.000000,,2013-04-24 10:12:00,
2013-04-24 04:22:00,23.0,1.0,-100.00,NNE,12,2.0,5.0,37,0.00,,,0.00,0.000000,,2013-04-24 10:22:00,
2013-04-24 04:42:00,23.0,-2.0,-100.00,North,355,2.0,4.0,32,0.00,,,0.00,0.000000,,2013-04-24 10:42:00,
2013-04-24 04:53:00,23.0,-2.0,-100.00,North,355,2.0,4.0,32,0.00,,,0.00,0.000000,,2013-04-24 10:53:00,
2013-04-24 05:02:00,23.0,-2.0,-100.00,North,355,2.0,4.0,32,0.00,,,0.00,0.000000,,2013-04-24 11:02:00,
2013-04-24 05:11:00,23.0,-2.0,-100.00,North,355,2.0,4.0,32,0.00,,,0.00,0.000000,,2013-04-24 11:11:00,
2013-04-24 05:21:00,23.0,-2.0,-100.00,North,355,2.0,4.0,32,0.00,,,0.00,0.000000,,2013-04-24 11:21:00,
2013-04-24 05:52:00,22.0,-3.0,-100.00,ENE,60,2.0,4.0,32,0.00,,,0.00,0.000000,,2013-04-24 11:52:00,
2013-04-24 06:02:00,22.0,-3.0,-100.00,ENE,60,2.0,4.0,32,0.00,,,0.00,0.000000,,2013-04-24 12:02:00,
2013-04-24 06:11:00,22.0,-3.0,-100.00,ENE,60,2.0,4.0,32,0.00,,,0.00,0.000000,,2013-04-24 12:11:00,
2013-04-24 06:22:00,22.0,-3.0,-100.00,ENE,60,2.0,4.0,32,0.00,,,0.00,0.000000,,2013-04-24 12:22:00,
2013-04-24 06:42:00,21.0,-1.0,-100.00,NE,38,1.0,2.0,37,0.00,,,0.00,0.000000,,2013-04-24 12:42:00,
2013-04-24 06:52:00,21.0,-1.0,-100.00,NE,38,1.0,2.0,37,0.00,,,0.00,0.000000,,2013-04-24 12:52:00,
2013-04-24 07:01:00,21.0,-1.0,-100.00,NE,38,1.0,2.0,37,0.00,,,0.00,0.000000,,2013-04-24 13:01:00,
2013-04-24 07:12:00,21.0,-1.0,-100.00,NE,38,1.0,2.0,37,0.00,,,0.00,0.000000,,2013-04-24 13:12:00,
2013-04-24 07:21:00,21.0,-1.0,-100.00,NE,38,1.0,2.0,37,0.00,,,0.00,0.000000,,2013-04-24 13:21:00,
2013-04-24 08:42:00,30.0,2.0,-100.00,ENE,58,1.0,2.0,30,-99.99,,,0.00,113.000000,,2013-04-24 14:42:00,
2013-04-24 08:52:00,30.0,2.0,-100.00,ENE,58,1.0,2.0,30,-99.99,,,0.00,113.000000,,2013-04-24 14:52:00,
2013-04-24 09:01:00,30.0,2.0,-100.00,ENE,58,1.0,2.0,30,-99.99,,,0.00,113.000000,,2013-04-24 15:01:00,
2013-04-24 09:11:00,30.0,2.0,-100.00,ENE,58,1.0,2.0,30,-99.99,,,0.00,113.000000,,2013-04-24 15:11:00,
2013-04-24 09:21:00,30.0,2.0,-100.00,ENE,58,1.0,2.0,30,-99.99,,,0.00,113.000000,,2013-04-24 15:21:00,
2013-04-24 09:53:00,37.0,1.0,-100.00,ESE,118,3.0,5.0,21,0.00,,,0.00,283.000000,,2013-04-24 15:53:00,
2013-04-24 10:03:00,37.0,1.0,-100.00,ESE,118,3.0,5.0,21,0.00,,,0.00,283.000000,,2013-04-24 16:03:00,
2013-04-24 10:12:00,37.0,1.0,-100.00,ESE,118,3.0,5.0,21,0.00,,,0.00,283.000000,,2013-04-24 16:12:00,
2013-04-24 10:23:00,37.0,1.0,-100.00,ESE,118,3.0,5.0,21,0.00,,,0.00,283.000000,,2013-04-24 16:23:00,
2013-04-24 10:52:00,43.0,-6.0,-100.00,West,270,3.0,6.0,12,0.00,,,0.00,609.000000,,2013-04-24 16:52:00,
2013-04-24 11:02:00,43.0,-6.0,-100.00,West,270,3.0,6.0,12,0.00,,,0.00,609.000000,,2013-04-24 17:02:00,
2013-04-24 11:12:00,43.0,-6.0,-100.00,West,270,3.0,6.0,12,0.00,,,0.00,609.000000,,2013-04-24 17:12:00,
2013-04-24 11:22:00,43.0,-6.0,-100.00,West,270,3.0,6.0,12,0.00,,,0.00,609.000000,,2013-04-24 17:22:00,
2013-04-24 11:52:00,46.0,0.0,-100.00,East,92,4.0,13.0,14,0.00,,,0.00,806.000000,,2013-04-24 17:52:00,
2013-04-24 12:02:00,46.0,0.0,-100.00,East,92,4.0,13.0,14,0.00,,,0.00,806.000000,,2013-04-24 18:02:00,
2013-04-24 12:12:00,46.0,0.0,-100.00,East,92,4.0,13.0,14,0.00,,,0.00,806.000000,,2013-04-24 18:12:00,
2013-04-24 12:21:00,46.0,0.0,-100.00,East,92,4.0,13.0,14,0.00,,,0.00,806.000000,,2013-04-24 18:21:00,
2013-04-24 12:52:00,47.0,2.0,-100.00,NNW,337,7.0,14.0,15,0.00,,,0.00,939.000000,,2013-04-24 18:52:00,
2013-04-24 13:01:00,47.0,2.0,-100.00,NNW,337,7.0,14.0,15,0.00,,,0.00,939.000000,,2013-04-24 19:01:00,
2013-04-24 13:11:00,47.0,2.0,-100.00,NNW,337,7.0,14.0,15,0.00,,,0.00,939.000000,,2013-04-24 19:11:00,
2013-04-24 13:21:00,47.0,2.0,-100.00,NNW,337,7.0,14.0,15,0.00,,,0.00,939.000000,,2013-04-24 19:21:00,
2013-04-24 13:42:00,48.0,1.0,-100.00,NW,306,7.0,17.0,14,0.00,,,0.00,897.000000,,2013-04-24 19:42:00,
2013-04-24 13:52:00,48.0,1.0,-100.00,NW,306,7.0,17.0,14,0.00,,,0.00,897.000000,,2013-04-24 19:52:00,
2013-04-24 14:01:00,48.0,1.0,-100.00,NW,306,7.0,17.0,14,0.00,,,0.00,897.000000,,2013-04-24 20:01:00,
2013-04-24 14:11:00,48.0,1.0,-100.00,NW,306,7.0,17.0,14,0.00,,,0.00,897.000000,,2013-04-24 20:11:00,
2013-04-24 14:21:00,48.0,1.0,-100.00,NW,306,7.0,17.0,14,0.00,,,0.00,897.000000,,2013-04-24 20:21:00,
2013-04-24 14:42:00,50.0,4.0,-100.00,NNE,15,9.0,17.0,15,0.00,,,0.00,982.000000,,2013-04-24 20:42:00,
2013-04-24 14:52:00,50.0,4.0,-100.00,NNE,15,9.0,17.0,15,0.00,,,0.00,982.000000,,2013-04-24 20:52:00,
2013-04-24 15:02:00,50.0,4.0,-100.00,NNE,15,9.0,17.0,15,0.00,,,0.00,982.000000,,2013-04-24 21:02:00,
2013-04-24 15:11:00,50.0,4.0,-100.00,NNE,15,9.0,17.0,15,0.00,,,0.00,982.000000,,2013-04-24 21:11:00,
2013-04-24 15:21:00,50.0,4.0,-100.00,NNE,15,9.0,17.0,15,0.00,,,0.00,982.000000,,2013-04-24 21:21:00,
2013-04-24 15:52:00,49.0,2.0,-100.00,NNW,336,7.0,19.0,14,0.00,,,0.00,663.000000,,2013-04-24 21:52:00,
2013-04-24 16:03:00,49.0,2.0,-100.00,NNW,336,7.0,19.0,14,0.00,,,0.00,663.000000,,2013-04-24 22:03:00,
2013-04-24 16:12:00,49.0,2.0,-100.00,NNW,336,7.0,19.0,14,0.00,,,0.00,663.000000,,2013-04-24 22:12:00,
2013-04-24 16:22:00,49.0,2.0,-100.00,NNW,336,7.0,19.0,14,0.00,,,0.00,663.000000,,2013-04-24 22:22:00,
2013-04-24 16:52:00,50.0,3.0,-100.00,North,5,9.0,17.0,14,0.00,,,0.00,788.000000,,2013-04-24 22:52:00,
2013-04-24 17:02:00,50.0,3.0,-100.00,North,5,9.0,17.0,14,0.00,,,0.00,788.000000,,2013-04-24 23:02:00,
2013-04-24 17:12:00,50.0,3.0,-100.00,North,5,9.0,17.0,14,0.00,,,0.00,788.000000,,2013-04-24 23:12:00,
2013-04-24 17:21:00,50.0,3.0,-100.00,North,5,9.0,17.0,14,0.00,,,0.00,788.000000,,2013-04-24 23:21:00,
2013-04-24 17:52:00,51.0,4.0,-100.00,NNE,23,7.0,15.0,14,0.00,,,0.00,529.000000,,2013-04-24 23:52:00,
2013-04-24 18:01:00,51.0,4.0,-100.00,NNE,23,7.0,15.0,14,0.00,,,0.00,529.000000,,2013-04-25 00:01:00,
2013-04-24 18:12:00,51.0,4.0,-100.00,NNE,23,7.0,15.0,14,0.00,,,0.00,529.000000,,2013-04-25 00:12:00,
2013-04-24 18:22:00,51.0,4.0,-100.00,NNE,23,7.0,15.0,14,0.00,,,0.00,529.000000,,2013-04-25 00:22:00,
2013-04-24 18:52:00,49.0,3.0,-100.00,North,1,11.0,17.0,15,0.00,,,0.00,506.000000,,2013-04-25 00:52:00,
2013-04-24 19:01:00,49.0,3.0,-100.00,North,1,11.0,17.0,15,0.00,,,0.00,506.000000,,2013-04-25 01:01:00,
2013-04-24 19:11:00,49.0,3.0,-100.00,North,1,11.0,17.0,15,0.00,,,0.00,506.000000,,2013-04-25 01:11:00,
2013-04-24 19:22:00,49.0,3.0,-100.00,North,1,11.0,17.0,15,0.00,,,0.00,506.000000,,2013-04-25 01:22:00,
2013-04-24 19:52:00,47.0,3.0,-100.00,North,3,8.0,14.0,16,0.00,,,0.00,276.000000,,2013-04-25 01:52:00,
2013-04-24 20:01:00,47.0,3.0,-100.00,North,3,8.0,14.0,16,0.00,,,0.00,276.000000,,2013-04-25 02:01:00,
2013-04-24 20:11:00,47.0,3.0,-100.00,North,3,8.0,14.0,16,0.00,,,0.00,276.000000,,2013-04-25 02:11:00,
2013-04-24 20:22:00,47.0,3.0,-100.00,North,3,8.0,14.0,16,0.00,,,0.00,276.000000,,2013-04-25 02:22:00,
2013-04-24 21:02:00,41.0,5.0,-100.00,NNE,14,4.0,10.0,22,0.00,,,0.00,53.000000,,2013-04-25 03:02:00,
2013-04-24 21:11:00,41.0,5.0,-100.00,NNE,14,4.0,10.0,22,0.00,,,0.00,53.000000,,2013-04-25 03:11:00,
2013-04-24 21:21:00,41.0,5.0,-100.00,NNE,14,4.0,10.0,22,0.00,,,0.00,53.000000,,2013-04-25 03:21:00,
2013-04-24 21:52:00,37.0,6.0,-100.00,North,3,4.0,7.0,27,0.00,,,0.00,1.000000,,2013-04-25 03:52:00,
2013-04-24 22:03:00,37.0,6.0,-100.00,North,3,4.0,7.0,27,0.00,,,0.00,1.000000,,2013-04-25 04:03:00,
2013-04-24 22:12:00,37.0,6.0,-100.00,North,3,4.0,7.0,27,0.00,,,0.00,1.000000,,2013-04-25 04:12:00,
2013-04-24 22:22:00,37.0,6.0,-100.00,North,3,4.0,7.0,27,0.00,,,0.00,1.000000,,2013-04-25 04:22:00,
2013-04-24 22:43:00,38.0,4.0,-100.00,NNE,12,2.0,8.0,24,0.00,,,0.00,0.000000,,2013-04-25 04:43:00,
2013-04-24 22:52:00,38.0,4.0,-100.00,NNE,12,2.0,8.0,24,0.00,,,0.00,0.000000,,2013-04-25 04:52:00,
2013-04-24 23:02:00,38.0,4.0,-100.00,NNE,12,2.0,8.0,24,0.00,,,0.00,0.000000,,2013-04-25 05:02:00,
2013-04-24 23:12:00,38.0,4.0,-100.00,NNE,12,2.0,8.0,24,0.00,,,0.00,0.000000,,2013-04-25 05:12:00,
2013-04-24 23:21:00,38.0,4.0,-100.00,NNE,12,2.0,8.0,24,0.00,,,0.00,0.000000,,2013-04-25 05:21:00,
2013-04-24 23:52:00,37.0,4.0,-100.00,NE,44,2.0,5.0,25,0.00,,,0.00,0.000000,,2013-04-25 05:52:00,